Time,TemperatureF,DewpointF,PressureIn,WindDirection,WindDirectionDegrees,WindSpeedMPH,WindSpeedGustMPH,Humidity,HourlyPrecipIn,Conditions,Clouds,dailyrainin,SoftwareType,DateUTC
2013-02-06 00:03:00,32.6,23.1,30.15,ESE,113,0.0,0.0,68,0.00,,,0.00,WUHU216HW,2013-02-06 06:03:00,
2013-02-06 00:24:00,31.9,23.2,30.15,East,90,0.4,0.4,70,0.00,,,0.00,WUHU216HW,2013-02-06 06:24:00,
2013-02-06 00:29:00,31.9,23.2,30.15,East,90,0.2,0.4,70,0.00,,,0.00,WUHU216HW,2013-02-06 06:29:00,
2013-02-06 00:34:00,31.9,23.2,30.15,East,90,0.2,0.4,70,0.00,,,0.00,WUHU216HW,2013-02-06 06:34:00,
2013-02-06 00:53:00,31.5,22.9,30.15,ESE,113,0.0,0.0,70,0.00,,,0.00,WUHU216HW,2013-02-06 06:53:00,
2013-02-06 00:58:00,31.5,22.9,30.15,ENE,68,0.0,0.0,70,0.00,,,0.00,WUHU216HW,2013-02-06 06:58:00,
2013-02-06 01:03:00,31.5,22.9,30.15,ENE,68,0.0,0.0,70,0.00,,,0.00,WUHU216HW,2013-02-06 07:03:00,
2013-02-06 01:24:00,30.1,22.1,30.14,ESE,113,0.7,0.7,72,0.00,,,0.00,WUHU216HW,2013-02-06 07:24:00,
2013-02-06 01:29:00,30.1,22.1,30.14,ESE,113,0.4,0.7,72,0.00,,,0.00,WUHU216HW,2013-02-06 07:29:00,
2013-02-06 01:34:00,30.1,22.1,30.14,ESE,113,0.4,0.7,72,0.00,,,0.00,WUHU216HW,2013-02-06 07:34:00,
2013-02-06 01:53:00,30.6,22.3,30.14,East,90,2.0,2.0,71,0.00,,,0.00,WUHU216HW,2013-02-06 07:53:00,
2013-02-06 01:58:00,30.6,22.3,30.14,East,90,2.0,2.0,71,0.00,,,0.00,WUHU216HW,2013-02-06 07:58:00,
2013-02-06 02:03:00,30.6,22.3,30.14,East,90,2.0,2.0,71,0.00,,,0.00,WUHU216HW,2013-02-06 08:03:00,
2013-02-06 02:24:00,31.1,23.1,30.14,ESE,113,1.6,1.6,72,0.00,,,0.00,WUHU216HW,2013-02-06 08:24:00,
2013-02-06 02:29:00,31.1,23.1,30.14,ESE,113,1.8,1.8,72,0.00,,,0.00,WUHU216HW,2013-02-06 08:29:00,
2013-02-06 02:34:00,31.1,23.1,30.14,ESE,113,1.8,1.8,72,0.00,,,0.00,WUHU216HW,2013-02-06 08:34:00,
2013-02-06 02:53:00,31.5,23.5,30.14,SE,135,2.5,2.5,72,0.00,,,0.00,WUHU216HW,2013-02-06 08:53:00,
2013-02-06 02:58:00,31.5,23.5,30.14,SE,135,2.2,2.5,72,0.00,,,0.00,WUHU216HW,2013-02-06 08:58:00,
2013-02-06 03:04:00,31.5,23.5,30.14,SE,135,2.2,2.2,72,0.00,,,0.00,WUHU216HW,2013-02-06 09:04:00,
2013-02-06 03:24:00,32.2,25.2,30.13,East,90,3.1,3.1,75,0.00,,,0.00,WUHU216HW,2013-02-06 09:24:00,
2013-02-06 03:29:00,32.0,25.0,30.13,ESE,113,3.4,3.4,75,0.00,,,0.00,WUHU216HW,2013-02-06 09:29:00,
2013-02-06 03:34:00,32.0,25.0,30.13,ESE,113,3.4,3.4,75,0.00,,,0.00,WUHU216HW,2013-02-06 09:34:00,
2013-02-06 03:53:00,32.9,26.2,30.13,ESE,113,2.7,2.7,76,0.00,,,0.00,WUHU216HW,2013-02-06 09:53:00,
2013-02-06 03:58:00,32.9,26.2,30.13,SE,135,3.8,4.5,76,0.00,,,0.00,WUHU216HW,2013-02-06 09:58:00,
2013-02-06 04:03:00,32.9,26.2,30.13,SE,135,3.8,4.5,76,0.00,,,0.00,WUHU216HW,2013-02-06 10:03:00,
2013-02-06 04:24:00,33.5,27.3,30.13,SSE,158,5.1,5.1,78,0.00,,,0.00,WUHU216HW,2013-02-06 10:24:00,
2013-02-06 04:29:00,33.5,27.3,30.12,SE,135,4.0,5.1,78,0.00,,,0.00,WUHU216HW,2013-02-06 10:29:00,
2013-02-06 04:34:00,33.5,27.3,30.12,SE,135,4.0,4.0,78,0.00,,,0.00,WUHU216HW,2013-02-06 10:34:00,
2013-02-06 04:53:00,34.0,27.8,30.14,SSW,203,2.5,2.5,78,0.00,,,0.00,WUHU216HW,2013-02-06 10:53:00,
2013-02-06 04:58:00,34.0,27.8,30.14,SSW,203,3.1,3.1,78,0.00,,,0.00,WUHU216HW,2013-02-06 10:58:00,
2013-02-06 05:03:00,34.0,27.8,30.14,SSW,203,3.1,3.1,78,0.00,,,0.00,WUHU216HW,2013-02-06 11:03:00,
2013-02-06 05:24:00,33.1,27.3,30.14,SSE,158,2.5,2.5,79,0.00,,,0.00,WUHU216HW,2013-02-06 11:24:00,
2013-02-06 05:29:00,33.1,27.0,30.14,SE,135,2.9,2.9,78,0.00,,,0.00,WUHU216HW,2013-02-06 11:29:00,
2013-02-06 05:34:00,33.1,27.0,30.14,SE,135,2.9,2.9,78,0.00,,,0.00,WUHU216HW,2013-02-06 11:34:00,
2013-02-06 05:53:00,32.8,27.5,30.13,ESE,113,6.3,6.3,81,0.00,,,0.00,WUHU216HW,2013-02-06 11:53:00,
2013-02-06 05:58:00,32.8,27.5,30.13,ESE,113,6.3,6.3,81,0.00,,,0.00,WUHU216HW,2013-02-06 11:58:00,
2013-02-06 06:03:00,32.8,27.5,30.13,ESE,113,6.3,6.3,81,0.00,,,0.00,WUHU216HW,2013-02-06 12:03:00,
2013-02-06 06:24:00,33.3,28.1,30.12,SE,135,6.9,6.9,81,0.00,,,0.00,WUHU216HW,2013-02-06 12:24:00,
2013-02-06 06:29:00,33.3,28.1,30.12,SE,135,6.3,6.9,81,0.00,,,0.00,WUHU216HW,2013-02-06 12:29:00,
2013-02-06 06:34:00,33.3,28.1,30.12,SE,135,6.3,6.9,81,0.00,,,0.00,WUHU216HW,2013-02-06 12:34:00,
2013-02-06 06:53:00,34.2,28.9,30.12,SE,135,5.4,5.4,81,0.00,,,0.00,WUHU216HW,2013-02-06 12:53:00,
2013-02-06 06:58:00,34.2,28.9,30.12,SE,135,6.3,6.3,81,0.00,,,0.00,WUHU216HW,2013-02-06 12:58:00,
2013-02-06 07:03:00,34.2,28.9,30.12,SE,135,6.3,6.3,81,0.00,,,0.00,WUHU216HW,2013-02-06 13:03:00,
2013-02-06 07:24:00,34.9,29.3,30.12,ESE,113,6.3,6.3,80,0.00,,,0.00,WUHU216HW,2013-02-06 13:24:00,
2013-02-06 07:29:00,34.9,29.3,30.12,ESE,113,6.3,6.3,80,0.00,,,0.00,WUHU216HW,2013-02-06 13:29:00,
2013-02-06 07:34:00,34.9,29.3,30.12,ESE,113,6.3,6.3,80,0.00,,,0.00,WUHU216HW,2013-02-06 13:34:00,
2013-02-06 07:53:00,36.4,29.8,30.12,SSE,158,6.5,6.5,77,0.00,,,0.00,WUHU216HW,2013-02-06 13:53:00,
2013-02-06 07:58:00,36.4,29.8,30.12,SSE,158,6.3,6.5,77,0.00,,,0.00,WUHU216HW,2013-02-06 13:58:00,
2013-02-06 08:03:00,36.4,29.8,30.12,SSE,158,6.3,6.5,77,0.00,,,0.00,WUHU216HW,2013-02-06 14:03:00,
2013-02-06 08:20:00,36.2,29.4,30.13,SSE,158,4.5,4.5,76,0.00,,,0.00,WUHU216HW,2013-02-06 14:20:00,
2013-02-06 08:25:00,36.4,29.8,30.13,SSE,158,4.0,5.1,77,0.00,,,0.00,WUHU216HW,2013-02-06 14:25:00,
2013-02-06 08:30:00,36.9,30.1,30.13,SSE,158,6.3,7.2,76,0.00,,,0.00,WUHU216HW,2013-02-06 14:30:00,
2013-02-06 08:35:00,37.6,30.8,30.13,WSW,248,5.1,7.2,76,0.00,,,0.00,WUHU216HW,2013-02-06 14:35:00,
2013-02-06 08:40:00,38.0,30.8,30.13,SW,225,4.7,7.8,75,0.00,,,0.00,WUHU216HW,2013-02-06 14:40:00,
2013-02-06 08:45:00,38.7,31.2,30.13,SSW,203,6.9,7.8,74,0.00,,,0.00,WUHU216HW,2013-02-06 14:45:00,
2013-02-06 08:50:00,39.8,31.4,30.13,South,180,7.8,7.8,72,0.00,,,0.00,WUHU216HW,2013-02-06 14:50:00,
2013-02-06 08:55:00,40.5,31.2,30.13,SSE,158,9.6,9.6,69,0.00,,,0.00,WUHU216HW,2013-02-06 14:55:00,
2013-02-06 09:00:00,40.7,31.0,30.13,SSE,158,8.1,9.6,68,0.00,,,0.00,WUHU216HW,2013-02-06 15:00:00,
2013-02-06 09:05:00,41.2,31.1,30.13,SSE,158,9.2,9.4,67,0.00,,,0.00,WUHU216HW,2013-02-06 15:05:00,
2013-02-06 09:10:00,41.4,31.7,30.13,South,180,6.9,9.4,68,0.00,,,0.00,WUHU216HW,2013-02-06 15:10:00,
2013-02-06 09:15:00,41.4,31.2,30.13,South,180,5.6,7.6,67,0.00,,,0.00,WUHU216HW,2013-02-06 15:15:00,
2013-02-06 09:20:00,41.6,31.4,30.13,South,180,9.2,9.8,67,0.00,,,0.00,WUHU216HW,2013-02-06 15:20:00,
2013-02-06 09:25:00,41.6,31.4,30.13,SSE,158,7.6,9.8,67,0.00,,,0.00,WUHU216HW,2013-02-06 15:25:00,
2013-02-06 09:30:00,42.1,31.6,30.13,SSE,158,6.0,8.5,66,0.00,,,0.00,WUHU216HW,2013-02-06 15:30:00,
2013-02-06 09:35:00,42.8,31.5,30.12,South,180,8.5,8.9,64,0.00,,,0.00,WUHU216HW,2013-02-06 15:35:00,
2013-02-06 09:40:00,43.0,31.7,30.12,South,180,7.8,9.8,64,0.00,,,0.00,WUHU216HW,2013-02-06 15:40:00,
2013-02-06 09:45:00,44.3,32.0,30.12,SE,135,8.3,9.8,62,0.00,,,0.00,WUHU216HW,2013-02-06 15:45:00,
2013-02-06 09:50:00,45.2,32.6,30.12,SSE,158,5.4,8.3,61,0.00,,,0.00,WUHU216HW,2013-02-06 15:50:00,
2013-02-06 09:55:00,45.9,32.0,30.12,SSE,158,9.2,12.8,58,0.00,,,0.00,WUHU216HW,2013-02-06 15:55:00,
2013-02-06 10:00:00,45.7,31.8,30.12,South,180,4.9,12.8,58,0.00,,,0.00,WUHU216HW,2013-02-06 16:00:00,
2013-02-06 10:05:00,46.3,31.3,30.12,SE,135,12.1,12.1,56,0.00,,,0.00,WUHU216HW,2013-02-06 16:05:00,
2013-02-06 10:10:00,46.4,31.5,30.12,SSE,158,6.5,12.1,56,0.00,,,0.00,WUHU216HW,2013-02-06 16:10:00,
2013-02-06 10:15:00,47.0,31.2,30.11,SE,135,8.7,13.4,54,0.00,,,0.00,WUHU216HW,2013-02-06 16:15:00,
2013-02-06 10:20:00,47.7,31.3,30.11,SE,135,6.3,13.4,53,0.00,,,0.00,WUHU216HW,2013-02-06 16:20:00,
2013-02-06 10:25:00,48.4,30.1,30.12,SE,135,11.4,11.4,49,0.00,,,0.00,WUHU216HW,2013-02-06 16:25:00,
2013-02-06 10:30:00,48.6,30.3,30.11,SSE,158,11.9,11.9,49,0.00,,,0.00,WUHU216HW,2013-02-06 16:30:00,
2013-02-06 10:35:00,48.8,29.9,30.12,SE,135,14.3,14.3,48,0.00,,,0.00,WUHU216HW,2013-02-06 16:35:00,
2013-02-06 10:40:00,49.1,30.3,30.12,SSW,203,9.2,14.3,48,0.00,,,0.00,WUHU216HW,2013-02-06 16:40:00,
2013-02-06 10:45:00,49.7,29.6,30.12,South,180,9.4,12.1,46,0.00,,,0.00,WUHU216HW,2013-02-06 16:45:00,
2013-02-06 10:50:00,50.8,30.6,30.12,SSE,158,12.1,12.1,46,0.00,,,0.00,WUHU216HW,2013-02-06 16:50:00,
2013-02-06 10:55:00,50.8,29.0,30.11,SE,135,12.1,12.1,43,0.00,,,0.00,WUHU216HW,2013-02-06 16:55:00,
2013-02-06 11:00:00,50.9,29.2,30.11,SSE,158,13.6,13.6,43,0.00,,,0.00,WUHU216HW,2013-02-06 17:00:00,
2013-02-06 11:05:00,50.9,29.7,30.11,South,180,7.2,13.6,44,0.00,,,0.00,WUHU216HW,2013-02-06 17:05:00,
2013-02-06 11:10:00,51.5,29.1,30.11,South,180,10.5,13.6,42,0.00,,,0.00,WUHU216HW,2013-02-06 17:10:00,
2013-02-06 11:15:00,51.5,29.6,30.10,SSW,203,3.6,10.5,43,0.00,,,0.00,WUHU216HW,2013-02-06 17:15:00,
2013-02-06 11:20:00,51.5,29.1,30.10,South,180,13.2,13.2,42,0.00,,,0.00,WUHU216HW,2013-02-06 17:20:00,
2013-02-06 11:25:00,51.8,30.0,30.10,South,180,8.7,13.4,43,0.00,,,0.00,WUHU216HW,2013-02-06 17:25:00,
2013-02-06 11:30:00,52.6,31.1,30.09,South,180,9.8,13.4,44,0.00,,,0.00,WUHU216HW,2013-02-06 17:30:00,
2013-02-06 11:35:00,53.6,31.6,30.09,SE,135,9.8,12.5,43,0.00,,,0.00,WUHU216HW,2013-02-06 17:35:00,
2013-02-06 11:40:00,54.2,32.0,30.09,SE,135,9.2,10.5,43,0.00,,,0.00,WUHU216HW,2013-02-06 17:40:00,
2013-02-06 11:45:00,55.1,32.9,30.09,South,180,8.5,10.5,43,0.00,,,0.00,WUHU216HW,2013-02-06 17:45:00,
2013-02-06 11:51:00,54.0,31.9,30.09,SE,135,10.1,10.5,43,0.00,,,0.00,WUHU216HW,2013-02-06 17:51:00,
2013-02-06 11:55:00,54.4,32.8,30.08,SSE,158,10.5,11.4,44,0.00,,,0.00,WUHU216HW,2013-02-06 17:55:00,
2013-02-06 12:00:00,55.4,33.8,30.08,SSW,203,7.8,11.4,44,0.00,,,0.00,WUHU216HW,2013-02-06 18:00:00,
2013-02-06 12:05:00,55.3,33.0,30.08,SSE,158,11.6,12.3,43,0.00,,,0.00,WUHU216HW,2013-02-06 18:05:00,
2013-02-06 12:11:00,55.8,33.5,30.07,South,180,9.8,12.8,43,0.00,,,0.00,WUHU216HW,2013-02-06 18:11:00,
2013-02-06 12:16:00,55.8,34.1,30.07,South,180,6.3,12.8,44,0.00,,,0.00,WUHU216HW,2013-02-06 18:16:00,
2013-02-06 12:21:00,55.3,33.0,30.06,SSE,158,8.7,9.6,43,0.00,,,0.00,WUHU216HW,2013-02-06 18:21:00,
2013-02-06 12:26:00,55.1,33.4,30.06,SSE,158,3.4,9.4,44,0.00,,,0.00,WUHU216HW,2013-02-06 18:26:00,
2013-02-06 12:31:00,54.4,33.8,30.05,South,180,7.2,9.8,46,0.00,,,0.00,WUHU216HW,2013-02-06 18:31:00,
2013-02-06 12:36:00,54.4,33.8,30.05,South,180,8.1,9.8,46,0.00,,,0.00,WUHU216HW,2013-02-06 18:36:00,
2013-02-06 12:41:00,54.5,33.5,30.05,SE,135,7.8,8.1,45,0.00,,,0.00,WUHU216HW,2013-02-06 18:41:00,
2013-02-06 12:46:00,54.2,33.8,30.05,South,180,8.5,13.9,46,0.00,,,0.00,WUHU216HW,2013-02-06 18:46:00,
2013-02-06 12:51:00,54.2,33.8,30.05,SSW,203,6.3,13.9,46,0.00,,,0.00,WUHU216HW,2013-02-06 18:51:00,
2013-02-06 12:56:00,54.0,33.6,30.05,SE,135,10.5,10.5,46,0.00,,,0.00,WUHU216HW,2013-02-06 18:56:00,
2013-02-06 13:01:00,53.6,33.2,30.05,SSE,158,10.5,10.5,46,0.00,,,0.00,WUHU216HW,2013-02-06 19:01:00,
2013-02-06 13:06:00,53.8,33.4,30.04,South,180,8.3,10.5,46,0.00,,,0.00,WUHU216HW,2013-02-06 19:06:00,
2013-02-06 13:11:00,54.5,34.0,30.03,SSE,158,7.4,11.4,46,0.00,,,0.00,WUHU216HW,2013-02-06 19:11:00,
2013-02-06 13:16:00,54.7,33.7,30.03,SSE,158,11.9,12.8,45,0.00,,,0.00,WUHU216HW,2013-02-06 19:16:00,
2013-02-06 13:21:00,55.1,33.9,30.03,SE,135,9.8,12.8,45,0.00,,,0.00,WUHU216HW,2013-02-06 19:21:00,
2013-02-06 13:26:00,55.4,34.3,30.03,SE,135,12.5,13.4,45,0.00,,,0.00,WUHU216HW,2013-02-06 19:26:00,
2013-02-06 13:31:00,55.8,34.7,30.03,SSE,158,7.2,13.4,45,0.00,,,0.00,WUHU216HW,2013-02-06 19:31:00,
2013-02-06 13:36:00,55.8,34.1,30.03,SSE,158,14.3,14.3,44,0.00,,,0.00,WUHU216HW,2013-02-06 19:36:00,
2013-02-06 13:41:00,56.2,34.4,30.02,SE,135,9.2,14.3,44,0.00,,,0.00,WUHU216HW,2013-02-06 19:41:00,
2013-02-06 13:46:00,57.2,35.5,30.01,SE,135,11.4,14.8,44,0.00,,,0.00,WUHU216HW,2013-02-06 19:46:00,
2013-02-06 13:51:00,57.8,34.2,30.01,SW,225,11.2,15.0,41,0.00,,,0.00,WUHU216HW,2013-02-06 19:51:00,
2013-02-06 13:56:00,57.4,35.0,30.01,South,180,11.4,15.0,43,0.00,,,0.00,WUHU216HW,2013-02-06 19:56:00,
2013-02-06 14:01:00,57.8,34.7,30.00,SE,135,9.2,11.4,42,0.00,,,0.00,WUHU216HW,2013-02-06 20:01:00,
2013-02-06 14:06:00,57.6,34.6,30.00,SSE,158,6.9,11.4,42,0.00,,,0.00,WUHU216HW,2013-02-06 20:06:00,
2013-02-06 14:11:00,58.7,35.0,29.99,SSE,158,12.1,13.4,41,0.00,,,0.00,WUHU216HW,2013-02-06 20:11:00,
2013-02-06 14:16:00,58.7,35.0,30.00,SSE,158,12.1,13.4,41,0.00,,,0.00,WUHU216HW,2013-02-06 20:16:00,
2013-02-06 14:21:00,58.7,35.0,29.99,East,90,8.7,12.1,41,0.00,,,0.00,WUHU216HW,2013-02-06 20:21:00,
2013-02-06 14:26:00,59.0,35.3,29.99,SE,135,9.8,14.5,41,0.00,,,0.00,WUHU216HW,2013-02-06 20:26:00,
2013-02-06 14:31:00,59.8,36.0,29.99,SSE,158,10.7,14.5,41,0.00,,,0.00,WUHU216HW,2013-02-06 20:31:00,
2013-02-06 14:36:00,59.8,36.0,29.98,SE,135,8.3,11.4,41,0.00,,,0.00,WUHU216HW,2013-02-06 20:36:00,
2013-02-06 14:41:00,60.1,35.7,29.98,ESE,113,7.6,13.4,40,0.00,,,0.00,WUHU216HW,2013-02-06 20:41:00,
2013-02-06 14:46:00,60.3,35.9,29.98,SE,135,7.6,13.4,40,0.00,,,0.00,WUHU216HW,2013-02-06 20:46:00,
2013-02-06 14:51:00,60.3,35.9,29.97,ESE,113,12.1,12.1,40,0.00,,,0.00,WUHU216HW,2013-02-06 20:51:00,
2013-02-06 14:56:00,60.1,36.3,29.97,SSE,158,15.7,15.7,41,0.00,,,0.00,WUHU216HW,2013-02-06 20:56:00,
2013-02-06 15:01:00,60.7,36.2,29.97,South,180,8.5,15.7,40,0.00,,,0.00,WUHU216HW,2013-02-06 21:01:00,
2013-02-06 15:06:00,61.2,36.7,29.97,SE,135,14.1,14.3,40,0.00,,,0.00,WUHU216HW,2013-02-06 21:06:00,
2013-02-06 15:11:00,60.8,36.4,29.97,South,180,13.6,14.3,40,0.00,,,0.00,WUHU216HW,2013-02-06 21:11:00,
2013-02-06 15:16:00,59.2,36.6,29.97,SE,135,8.5,14.1,43,0.00,,,0.00,WUHU216HW,2013-02-06 21:16:00,
2013-02-06 15:21:00,58.9,36.3,29.97,SSE,158,10.5,13.6,43,0.00,,,0.00,WUHU216HW,2013-02-06 21:21:00,
2013-02-06 15:26:00,58.5,36.5,29.97,South,180,8.5,12.5,44,0.00,,,0.00,WUHU216HW,2013-02-06 21:26:00,
2013-02-06 15:31:00,58.5,36.5,29.96,South,180,6.9,10.7,44,0.00,,,0.00,WUHU216HW,2013-02-06 21:31:00,
2013-02-06 15:36:00,58.7,36.7,29.96,SSE,158,9.2,10.7,44,0.00,,,0.00,WUHU216HW,2013-02-06 21:36:00,
2013-02-06 15:41:00,58.7,36.7,29.96,South,180,6.9,10.5,44,0.00,,,0.00,WUHU216HW,2013-02-06 21:41:00,
2013-02-06 15:46:00,58.9,36.9,29.96,SSE,158,8.5,11.4,44,0.00,,,0.00,WUHU216HW,2013-02-06 21:46:00,
2013-02-06 15:51:00,58.7,37.3,29.96,SE,135,8.5,11.4,45,0.00,,,0.00,WUHU216HW,2013-02-06 21:51:00,
2013-02-06 15:56:00,58.7,37.3,29.96,SE,135,5.4,10.3,45,0.00,,,0.00,WUHU216HW,2013-02-06 21:56:00,
2013-02-06 16:01:00,58.5,37.7,29.96,SE,135,7.6,10.3,46,0.00,,,0.00,WUHU216HW,2013-02-06 22:01:00,
2013-02-06 16:06:00,58.3,37.5,29.95,SE,135,6.5,8.9,46,0.00,,,0.00,WUHU216HW,2013-02-06 22:06:00,
2013-02-06 16:11:00,58.3,37.0,29.95,South,180,9.6,10.1,45,0.00,,,0.00,WUHU216HW,2013-02-06 22:11:00,
2013-02-06 16:16:00,58.1,38.0,29.95,SSE,158,5.4,10.1,47,0.00,,,0.00,WUHU216HW,2013-02-06 22:16:00,
2013-02-06 16:21:00,58.1,37.4,29.95,SSE,158,10.5,10.5,46,0.00,,,0.00,WUHU216HW,2013-02-06 22:21:00,
2013-02-06 16:26:00,58.0,37.8,29.94,South,180,7.2,15.0,47,0.00,,,0.00,WUHU216HW,2013-02-06 22:26:00,
2013-02-06 16:31:00,58.0,37.8,29.94,South,180,5.4,15.0,47,0.00,,,0.00,WUHU216HW,2013-02-06 22:31:00,
2013-02-06 16:36:00,58.0,37.8,29.94,ESE,113,6.7,12.1,47,0.00,,,0.00,WUHU216HW,2013-02-06 22:36:00,
2013-02-06 16:41:00,57.8,38.3,29.94,SSE,158,7.8,9.2,48,0.00,,,0.00,WUHU216HW,2013-02-06 22:41:00,
2013-02-06 16:46:00,58.3,38.7,29.94,ESE,113,8.5,12.1,48,0.00,,,0.00,WUHU216HW,2013-02-06 22:46:00,
2013-02-06 16:51:00,59.0,38.2,29.93,South,180,8.5,12.1,46,0.00,,,0.00,WUHU216HW,2013-02-06 22:51:00,
2013-02-06 16:56:00,59.4,38.5,29.93,SSE,158,6.9,11.4,46,0.00,,,0.00,WUHU216HW,2013-02-06 22:56:00,
2013-02-06 17:01:00,59.4,38.5,29.94,SE,135,4.9,8.5,46,0.00,,,0.00,WUHU216HW,2013-02-06 23:01:00,
2013-02-06 17:06:00,59.4,38.5,29.94,SE,135,4.9,6.9,46,0.00,,,0.00,WUHU216HW,2013-02-06 23:06:00,
2013-02-06 17:11:00,58.5,38.3,29.93,SSE,158,4.0,8.5,47,0.00,,,0.00,WUHU216HW,2013-02-06 23:11:00,
2013-02-06 17:16:00,58.1,38.5,29.94,SSE,158,5.8,8.5,48,0.00,,,0.00,WUHU216HW,2013-02-06 23:16:00,
2013-02-06 17:21:00,57.8,38.8,29.94,SSE,158,5.8,7.4,49,0.00,,,0.00,WUHU216HW,2013-02-06 23:21:00,
2013-02-06 17:26:00,57.6,38.6,29.94,SSE,158,4.9,7.4,49,0.00,,,0.00,WUHU216HW,2013-02-06 23:26:00,
2013-02-06 17:31:00,57.4,39.1,29.93,SE,135,7.2,8.7,50,0.00,,,0.00,WUHU216HW,2013-02-06 23:31:00,
2013-02-06 17:36:00,57.2,38.9,29.93,SE,135,6.0,8.7,50,0.00,,,0.00,WUHU216HW,2013-02-06 23:36:00,
2013-02-06 17:41:00,56.9,39.0,29.93,SE,135,5.4,7.2,51,0.00,,,0.00,WUHU216HW,2013-02-06 23:41:00,
2013-02-06 17:46:00,56.5,38.6,29.93,SSE,158,4.5,6.9,51,0.00,,,0.00,WUHU216HW,2013-02-06 23:46:00,
2013-02-06 17:51:00,56.5,38.6,29.94,SSE,158,3.6,6.0,51,0.00,,,0.00,WUHU216HW,2013-02-06 23:51:00,
2013-02-06 17:56:00,56.3,38.9,29.94,SSE,158,5.4,5.6,52,0.00,,,0.00,WUHU216HW,2013-02-06 23:56:00,
2013-02-06 18:01:00,56.0,38.1,29.94,SE,135,4.5,6.0,51,0.00,,,0.00,WUHU216HW,2013-02-07 00:01:00,
2013-02-06 18:06:00,55.8,38.3,29.94,SSE,158,3.1,6.0,52,0.00,,,0.00,WUHU216HW,2013-02-07 00:06:00,
2013-02-06 18:11:00,55.6,38.2,29.94,SE,135,4.7,5.4,52,0.00,,,0.00,WUHU216HW,2013-02-07 00:11:00,
2013-02-06 18:16:00,55.4,38.0,29.94,ESE,113,4.0,5.4,52,0.00,,,0.00,WUHU216HW,2013-02-07 00:16:00,
2013-02-06 18:21:00,55.3,38.4,29.94,SE,135,4.7,5.6,53,0.00,,,0.00,WUHU216HW,2013-02-07 00:21:00,
2013-02-06 18:26:00,55.1,38.2,29.94,SSE,158,4.0,5.6,53,0.00,,,0.00,WUHU216HW,2013-02-07 00:26:00,
2013-02-06 18:31:00,55.1,38.2,29.95,ESE,113,3.4,4.7,53,0.00,,,0.00,WUHU216HW,2013-02-07 00:31:00,
2013-02-06 18:36:00,55.1,38.2,29.95,ESE,113,2.7,4.5,53,0.00,,,0.00,WUHU216HW,2013-02-07 00:36:00,
2013-02-06 18:41:00,55.1,38.2,29.95,SE,135,3.4,4.5,53,0.00,,,0.00,WUHU216HW,2013-02-07 00:41:00,
2013-02-06 18:46:00,55.1,38.2,29.95,SE,135,2.2,3.4,53,0.00,,,0.00,WUHU216HW,2013-02-07 00:46:00,
2013-02-06 18:51:00,55.1,38.2,29.95,ESE,113,2.2,3.4,53,0.00,,,0.00,WUHU216HW,2013-02-07 00:51:00,
2013-02-06 18:56:00,54.9,38.0,29.95,ESE,113,2.2,3.4,53,0.00,,,0.00,WUHU216HW,2013-02-07 00:56:00,
2013-02-06 19:01:00,54.9,38.0,29.95,ESE,113,2.0,3.6,53,0.00,,,0.00,WUHU216HW,2013-02-07 01:01:00,
2013-02-06 19:06:00,54.9,38.0,29.95,SE,135,2.2,3.6,53,0.00,,,0.00,WUHU216HW,2013-02-07 01:06:00,
2013-02-06 19:11:00,54.7,37.8,29.95,SE,135,4.0,4.5,53,0.00,,,0.00,WUHU216HW,2013-02-07 01:11:00,
2013-02-06 19:16:00,54.4,38.0,29.95,SE,135,3.4,5.4,54,0.00,,,0.00,WUHU216HW,2013-02-07 01:16:00,
2013-02-06 19:21:00,54.2,37.8,29.95,SSE,158,4.0,5.4,54,0.00,,,0.00,WUHU216HW,2013-02-07 01:21:00,
2013-02-06 19:26:00,54.0,38.2,29.95,SE,135,4.5,4.5,55,0.00,,,0.00,WUHU216HW,2013-02-07 01:26:00,
2013-02-06 19:31:00,53.8,38.0,29.95,ESE,113,3.6,4.5,55,0.00,,,0.00,WUHU216HW,2013-02-07 01:31:00,
2013-02-06 19:36:00,53.6,37.8,29.95,ESE,113,3.4,4.9,55,0.00,,,0.00,WUHU216HW,2013-02-07 01:36:00,
2013-02-06 19:41:00,53.5,38.1,29.95,ESE,113,4.7,4.9,56,0.00,,,0.00,WUHU216HW,2013-02-07 01:41:00,
2013-02-06 19:46:00,53.3,37.9,29.95,ESE,113,5.4,6.3,56,0.00,,,0.00,WUHU216HW,2013-02-07 01:46:00,
2013-02-06 19:51:00,52.9,37.6,29.95,SE,135,6.3,6.3,56,0.00,,,0.00,WUHU216HW,2013-02-07 01:51:00,
2013-02-06 19:56:00,52.7,37.9,29.95,ESE,113,6.7,7.8,57,0.00,,,0.00,WUHU216HW,2013-02-07 01:56:00,
2013-02-06 20:01:00,52.6,38.2,29.94,ESE,113,7.4,8.3,58,0.00,,,0.00,WUHU216HW,2013-02-07 02:01:00,
2013-02-06 20:06:00,52.2,37.8,29.94,SE,135,6.3,8.3,58,0.00,,,0.00,WUHU216HW,2013-02-07 02:06:00,
2013-02-06 20:11:00,52.2,38.3,29.95,SE,135,5.4,7.6,59,0.00,,,0.00,WUHU216HW,2013-02-07 02:11:00,
2013-02-06 20:16:00,52.0,38.1,29.95,SE,135,4.7,7.2,59,0.00,,,0.00,WUHU216HW,2013-02-07 02:16:00,
2013-02-06 20:21:00,51.8,37.9,29.95,SE,135,6.7,6.7,59,0.00,,,0.00,WUHU216HW,2013-02-07 02:21:00,
2013-02-06 20:26:00,51.8,37.9,29.95,SE,135,6.7,7.6,59,0.00,,,0.00,WUHU216HW,2013-02-07 02:26:00,
2013-02-06 20:31:00,51.8,37.9,29.95,SSE,158,5.4,8.3,59,0.00,,,0.00,WUHU216HW,2013-02-07 02:31:00,
2013-02-06 20:36:00,51.8,37.9,29.95,SE,135,5.4,8.3,59,0.00,,,0.00,WUHU216HW,2013-02-07 02:36:00,
2013-02-06 20:41:00,51.8,37.9,29.95,SSE,158,4.5,6.5,59,0.00,,,0.00,WUHU216HW,2013-02-07 02:41:00,
2013-02-06 20:46:00,52.0,38.1,29.95,SE,135,6.5,6.5,59,0.00,,,0.00,WUHU216HW,2013-02-07 02:46:00,
2013-02-06 20:51:00,52.0,38.1,29.95,SSE,158,6.0,7.2,59,0.00,,,0.00,WUHU216HW,2013-02-07 02:51:00,
2013-02-06 20:56:00,52.0,38.1,29.95,SE,135,6.3,7.2,59,0.00,,,0.00,WUHU216HW,2013-02-07 02:56:00,
2013-02-06 21:01:00,52.0,38.1,29.95,ESE,113,6.5,7.4,59,0.00,,,0.00,WUHU216HW,2013-02-07 03:01:00,
2013-02-06 21:06:00,52.0,38.1,29.95,SE,135,6.5,8.1,59,0.00,,,0.00,WUHU216HW,2013-02-07 03:06:00,
2013-02-06 21:11:00,51.8,37.9,29.95,ESE,113,5.4,8.1,59,0.00,,,0.00,WUHU216HW,2013-02-07 03:11:00,
2013-02-06 21:16:00,51.8,38.3,29.95,SSE,158,5.8,8.5,60,0.00,,,0.00,WUHU216HW,2013-02-07 03:16:00,
2013-02-06 21:21:00,51.7,38.2,29.95,ESE,113,6.9,8.5,60,0.00,,,0.00,WUHU216HW,2013-02-07 03:21:00,
2013-02-06 21:26:00,51.7,38.2,29.95,SSE,158,6.9,8.7,60,0.00,,,0.00,WUHU216HW,2013-02-07 03:26:00,
2013-02-06 21:31:00,51.5,38.0,29.95,SSE,158,6.0,8.7,60,0.00,,,0.00,WUHU216HW,2013-02-07 03:31:00,
2013-02-06 21:36:00,51.5,38.4,29.95,SSE,158,7.4,8.1,61,0.00,,,0.00,WUHU216HW,2013-02-07 03:36:00,
2013-02-06 21:41:00,51.5,38.0,29.95,South,180,5.8,7.8,60,0.00,,,0.00,WUHU216HW,2013-02-07 03:41:00,
2013-02-06 21:46:00,51.8,38.3,29.95,SSE,158,7.6,7.8,60,0.00,,,0.00,WUHU216HW,2013-02-07 03:46:00,
2013-02-06 21:51:00,51.8,38.3,29.95,SSE,158,6.9,12.1,60,0.00,,,0.00,WUHU216HW,2013-02-07 03:51:00,
2013-02-06 21:56:00,51.8,38.3,29.95,SSE,158,7.2,12.1,60,0.00,,,0.00,WUHU216HW,2013-02-07 03:56:00,
2013-02-06 22:01:00,51.8,38.3,29.95,SSE,158,7.4,11.4,60,0.00,,,0.00,WUHU216HW,2013-02-07 04:01:00,
2013-02-06 22:06:00,51.8,38.3,29.94,SSE,158,8.9,10.7,60,0.00,,,0.00,WUHU216HW,2013-02-07 04:06:00,
2013-02-06 22:11:00,51.8,38.3,29.94,SSW,203,8.7,11.6,60,0.00,,,0.00,WUHU216HW,2013-02-07 04:11:00,
2013-02-06 22:16:00,51.8,38.3,29.93,SSW,203,8.1,11.6,60,0.00,,,0.00,WUHU216HW,2013-02-07 04:16:00,
2013-02-06 22:21:00,51.8,38.3,29.93,South,180,13.0,13.0,60,0.00,,,0.00,WUHU216HW,2013-02-07 04:21:00,
2013-02-06 22:26:00,51.8,38.3,29.93,SSE,158,10.5,13.0,60,0.00,,,0.00,WUHU216HW,2013-02-07 04:26:00,
2013-02-06 22:31:00,51.7,38.2,29.93,SE,135,10.3,13.0,60,0.00,,,0.00,WUHU216HW,2013-02-07 04:31:00,
2013-02-06 22:36:00,51.5,38.0,29.93,South,180,8.9,11.6,60,0.00,,,0.00,WUHU216HW,2013-02-07 04:36:00,
2013-02-06 22:41:00,51.5,38.0,29.93,South,180,10.1,11.0,60,0.00,,,0.00,WUHU216HW,2013-02-07 04:41:00,
2013-02-06 22:46:00,51.3,38.3,29.93,South,180,8.1,11.0,61,0.00,,,0.00,WUHU216HW,2013-02-07 04:46:00,
2013-02-06 22:51:00,51.1,38.1,29.93,South,180,9.2,11.6,61,0.00,,,0.00,WUHU216HW,2013-02-07 04:51:00,
2013-02-06 22:56:00,51.1,38.1,29.94,SSE,158,6.9,11.6,61,0.00,,,0.00,WUHU216HW,2013-02-07 04:56:00,
2013-02-06 23:00:00,50.9,38.0,29.93,SSE,158,6.9,10.5,61,0.00,,,0.00,WUHU216HW,2013-02-07 05:00:00,
2013-02-06 23:01:00,50.8,38.2,29.93,South,180,7.8,10.5,62,0.00,,,0.00,WUHU216HW,2013-02-07 05:01:00,
2013-02-06 23:06:00,50.8,38.2,29.94,South,180,6.7,9.8,62,0.00,,,0.00,WUHU216HW,2013-02-07 05:06:00,
2013-02-06 23:11:00,50.8,38.2,29.94,South,180,7.6,9.8,62,0.00,,,0.00,WUHU216HW,2013-02-07 05:11:00,
2013-02-06 23:16:00,50.6,38.4,29.93,South,180,6.7,10.1,63,0.00,,,0.00,WUHU216HW,2013-02-07 05:16:00,
2013-02-06 23:21:00,50.6,38.4,29.94,SSW,203,7.2,10.1,63,0.00,,,0.00,WUHU216HW,2013-02-07 05:21:00,
2013-02-06 23:26:00,50.4,38.3,29.94,South,180,6.7,8.9,63,0.00,,,0.00,WUHU216HW,2013-02-07 05:26:00,
2013-02-06 23:31:00,50.4,38.3,29.95,SSE,158,4.0,8.9,63,0.00,,,0.00,WUHU216HW,2013-02-07 05:31:00,
2013-02-06 23:36:00,50.2,38.1,29.95,SSE,158,3.4,8.1,63,0.00,,,0.00,WUHU216HW,2013-02-07 05:36:00,
2013-02-06 23:41:00,50.0,37.9,29.95,SSW,203,4.7,5.6,63,0.00,,,0.00,WUHU216HW,2013-02-07 05:41:00,
2013-02-06 23:46:00,49.9,38.2,29.95,SSW,203,4.0,4.7,64,0.00,,,0.00,WUHU216HW,2013-02-07 05:46:00,
2013-02-06 23:51:00,49.7,38.0,29.95,South,180,3.1,5.4,64,0.00,,,0.00,WUHU216HW,2013-02-07 05:51:00,
2013-02-06 23:56:00,49.7,38.0,29.95,SSW,203,4.0,5.4,64,0.00,,,0.00,WUHU216HW,2013-02-07 05:56:00,